General Aviation Weather

Text Reports

Enter one or more of the following location identifiers separated by a space:

Zip Code, Four-Character ICAO or Three-Character IATA airport codes.

METAR - Aviation Routine Weather Report
KMNZ - Hamilton, Texas
Updated at 3:35 PM GMT on April 18, 2014 (10:35 AM CDT):
METAR KMNZ 181535Z AUTO 33005G08KT 7SM OVC013 17/14 A3025 RMK AO2 T01710137
TAF - Terminal Area Forecast
KMNZ - Hamilton, Texas
Updated at 3:35 PM GMT on April 18, 2014 (10:35 AM CDT):
No TAF is currently available for this location.
Decoded:
No decoded TAF is available.
PIREP - Pilot Weather Report
KMNZ - Hamilton, Texas
Updated at 3:35 PM GMT on April 18, 2014 (10:35 AM CDT):
No PIREP is currently available for this location.
AIRMET - Airmens Meteorological Information
KMNZ - Hamilton, Texas
Updated at 3:35 PM GMT on April 18, 2014 (10:35 AM CDT):
No AIRMET is currently available for this location.
SIGMET - Significant Meteorological Information
KMNZ - Hamilton, Texas
Updated at 3:35 PM GMT on April 18, 2014 (10:35 AM CDT):
No SIGMET is currently available for this location.
NOTAM - Notice to Airmen
KMNZ - Hamilton, Texas
Updated at 3:35 PM GMT on April 18, 2014 (10:35 AM CDT):
No NOTAM is currently available for this location.
Forecast Area
KMNZ - Hamilton, Texas
Updated at 3:35 PM GMT on April 18, 2014 (10:35 AM CDT):
No NOTAM is currently available for this location.
Aviation Weather Maps